sensor_id;sensor_type;location;lat;lon;timestamp;temperature;humidity
4312;DHT22;2169;49.086;9.284;2023-09-19T00:00:34;18.40;68.90
4312;DHT22;2169;49.086;9.284;2023-09-19T00:03:02;18.40;69.00
4312;DHT22;2169;49.086;9.284;2023-09-19T00:05:33;18.40;69.00
4312;DHT22;2169;49.086;9.284;2023-09-19T00:08:01;18.40;69.00
4312;DHT22;2169;49.086;9.284;2023-09-19T00:10:30;18.40;69.10
4312;DHT22;2169;49.086;9.284;2023-09-19T00:12:58;18.40;69.20
4312;DHT22;2169;49.086;9.284;2023-09-19T00:15:27;18.40;69.30
4312;DHT22;2169;49.086;9.284;2023-09-19T00:17:55;18.40;69.40
4312;DHT22;2169;49.086;9.284;2023-09-19T00:20:23;18.40;69.50
4312;DHT22;2169;49.086;9.284;2023-09-19T00:22:51;18.40;69.60
4312;DHT22;2169;49.086;9.284;2023-09-19T00:25:20;18.40;69.70
4312;DHT22;2169;49.086;9.284;2023-09-19T00:27:47;18.40;69.70
4312;DHT22;2169;49.086;9.284;2023-09-19T00:30:17;18.40;69.80
4312;DHT22;2169;49.086;9.284;2023-09-19T00:32:48;18.30;70.50
4312;DHT22;2169;49.086;9.284;2023-09-19T00:35:19;18.40;70.00
4312;DHT22;2169;49.086;9.284;2023-09-19T00:37:47;18.30;69.90
4312;DHT22;2169;49.086;9.284;2023-09-19T00:40:14;18.30;69.90
4312;DHT22;2169;49.086;9.284;2023-09-19T00:42:41;18.30;69.90
4312;DHT22;2169;49.086;9.284;2023-09-19T00:45:09;18.30;70.00
4312;DHT22;2169;49.086;9.284;2023-09-19T00:47:38;18.30;70.00
4312;DHT22;2169;49.086;9.284;2023-09-19T00:50:08;18.30;70.00
4312;DHT22;2169;49.086;9.284;2023-09-19T00:52:37;18.30;70.00
4312;DHT22;2169;49.086;9.284;2023-09-19T00:55:05;18.30;70.10
4312;DHT22;2169;49.086;9.284;2023-09-19T00:57:33;18.30;70.00
4312;DHT22;2169;49.086;9.284;2023-09-19T01:00:03;18.30;70.00
4312;DHT22;2169;49.086;9.284;2023-09-19T01:02:32;18.30;70.00
4312;DHT22;2169;49.086;9.284;2023-09-19T01:04:59;18.30;70.00
4312;DHT22;2169;49.086;9.284;2023-09-19T01:07:30;18.30;70.00
4312;DHT22;2169;49.086;9.284;2023-09-19T01:09:59;18.30;70.00
4312;DHT22;2169;49.086;9.284;2023-09-19T01:12:33;18.40;70.00
4312;DHT22;2169;49.086;9.284;2023-09-19T01:15:08;18.40;70.00
4312;DHT22;2169;49.086;9.284;2023-09-19T01:17:45;18.40;70.00
4312;DHT22;2169;49.086;9.284;2023-09-19T01:20:22;18.40;69.90
4312;DHT22;2169;49.086;9.284;2023-09-19T01:23:04;18.40;70.00
4312;DHT22;2169;49.086;9.284;2023-09-19T01:29:11;18.40;69.90
4312;DHT22;2169;49.086;9.284;2023-09-19T01:31:42;18.40;69.90
4312;DHT22;2169;49.086;9.284;2023-09-19T01:34:10;18.40;70.00
4312;DHT22;2169;49.086;9.284;2023-09-19T01:36:38;18.40;69.90
4312;DHT22;2169;49.086;9.284;2023-09-19T01:39:06;18.50;70.00
4312;DHT22;2169;49.086;9.284;2023-09-19T01:41:56;18.50;70.00
4312;DHT22;2169;49.086;9.284;2023-09-19T01:44:31;18.50;70.00
4312;DHT22;2169;49.086;9.284;2023-09-19T01:47:08;18.50;70.00
4312;DHT22;2169;49.086;9.284;2023-09-19T01:49:44;18.50;70.10
4312;DHT22;2169;49.086;9.284;2023-09-19T01:52:13;18.50;70.10
4312;DHT22;2169;49.086;9.284;2023-09-19T01:54:46;18.50;70.10
4312;DHT22;2169;49.086;9.284;2023-09-19T01:57:20;18.50;70.20
4312;DHT22;2169;49.086;9.284;2023-09-19T01:59:50;18.50;70.20
4312;DHT22;2169;49.086;9.284;2023-09-19T02:02:20;18.50;70.20
4312;DHT22;2169;49.086;9.284;2023-09-19T02:04:48;18.50;70.10
4312;DHT22;2169;49.086;9.284;2023-09-19T02:07:16;18.50;70.10
4312;DHT22;2169;49.086;9.284;2023-09-19T02:09:42;18.50;70.00
4312;DHT22;2169;49.086;9.284;2023-09-19T02:12:09;18.50;70.00
4312;DHT22;2169;49.086;9.284;2023-09-19T02:14:36;18.50;70.00
4312;DHT22;2169;49.086;9.284;2023-09-19T02:17:03;18.50;70.00
4312;DHT22;2169;49.086;9.284;2023-09-19T02:19:37;18.50;70.10
4312;DHT22;2169;49.086;9.284;2023-09-19T02:22:07;18.40;70.00
4312;DHT22;2169;49.086;9.284;2023-09-19T02:24:36;18.40;70.00
4312;DHT22;2169;49.086;9.284;2023-09-19T02:27:04;18.40;70.00
4312;DHT22;2169;49.086;9.284;2023-09-19T02:29:30;18.40;70.00
4312;DHT22;2169;49.086;9.284;2023-09-19T02:31:57;18.40;70.00
4312;DHT22;2169;49.086;9.284;2023-09-19T02:34:24;18.40;70.60
4312;DHT22;2169;49.086;9.284;2023-09-19T02:36:52;18.40;69.90
4312;DHT22;2169;49.086;9.284;2023-09-19T02:39:20;18.40;70.00
4312;DHT22;2169;49.086;9.284;2023-09-19T02:41:47;18.30;69.90
4312;DHT22;2169;49.086;9.284;2023-09-19T02:44:14;18.30;69.90
4312;DHT22;2169;49.086;9.284;2023-09-19T02:46:40;18.30;69.90
4312;DHT22;2169;49.086;9.284;2023-09-19T02:49:07;18.30;70.00
4312;DHT22;2169;49.086;9.284;2023-09-19T02:51:34;18.30;69.90
4312;DHT22;2169;49.086;9.284;2023-09-19T02:54:03;18.30;69.80
4312;DHT22;2169;49.086;9.284;2023-09-19T02:56:29;18.30;69.80
4312;DHT22;2169;49.086;9.284;2023-09-19T02:58:57;18.20;69.70
4312;DHT22;2169;49.086;9.284;2023-09-19T03:01:26;18.20;69.70
4312;DHT22;2169;49.086;9.284;2023-09-19T03:03:53;18.20;69.70
4312;DHT22;2169;49.086;9.284;2023-09-19T03:06:20;18.20;69.70
4312;DHT22;2169;49.086;9.284;2023-09-19T03:08:47;18.20;69.80
4312;DHT22;2169;49.086;9.284;2023-09-19T03:11:18;18.20;69.70
4312;DHT22;2169;49.086;9.284;2023-09-19T03:13:51;18.20;69.70
4312;DHT22;2169;49.086;9.284;2023-09-19T03:16:18;18.20;69.80
4312;DHT22;2169;49.086;9.284;2023-09-19T03:18:47;18.20;69.80
4312;DHT22;2169;49.086;9.284;2023-09-19T03:21:14;18.20;69.80
4312;DHT22;2169;49.086;9.284;2023-09-19T03:23:41;18.20;69.80
4312;DHT22;2169;49.086;9.284;2023-09-19T03:26:11;18.20;69.80
4312;DHT22;2169;49.086;9.284;2023-09-19T03:28:39;18.20;69.80
4312;DHT22;2169;49.086;9.284;2023-09-19T03:31:06;18.20;69.80
4312;DHT22;2169;49.086;9.284;2023-09-19T03:33:33;18.20;69.90
4312;DHT22;2169;49.086;9.284;2023-09-19T03:36:01;18.20;69.90
4312;DHT22;2169;49.086;9.284;2023-09-19T03:38:30;18.20;69.90
4312;DHT22;2169;49.086;9.284;2023-09-19T03:40:57;18.20;70.00
4312;DHT22;2169;49.086;9.284;2023-09-19T03:43:24;18.20;70.00
4312;DHT22;2169;49.086;9.284;2023-09-19T03:45:52;18.20;70.00
4312;DHT22;2169;49.086;9.284;2023-09-19T03:48:20;18.20;70.00
4312;DHT22;2169;49.086;9.284;2023-09-19T03:50:47;18.20;70.10
4312;DHT22;2169;49.086;9.284;2023-09-19T03:53:14;18.20;70.80
4312;DHT22;2169;49.086;9.284;2023-09-19T03:55:40;18.20;70.20
4312;DHT22;2169;49.086;9.284;2023-09-19T03:58:07;18.20;70.30
4312;DHT22;2169;49.086;9.284;2023-09-19T04:00:34;18.40;70.80
4312;DHT22;2169;49.086;9.284;2023-09-19T04:03:02;18.30;70.60
4312;DHT22;2169;49.086;9.284;2023-09-19T04:05:32;18.30;70.60
4312;DHT22;2169;49.086;9.284;2023-09-19T04:07:59;18.30;70.60
4312;DHT22;2169;49.086;9.284;2023-09-19T04:10:26;18.30;70.70
4312;DHT22;2169;49.086;9.284;2023-09-19T04:12:54;18.30;70.60
4312;DHT22;2169;49.086;9.284;2023-09-19T04:15:21;18.30;70.60
4312;DHT22;2169;49.086;9.284;2023-09-19T04:17:49;18.30;70.60
4312;DHT22;2169;49.086;9.284;2023-09-19T04:20:17;18.30;70.70
4312;DHT22;2169;49.086;9.284;2023-09-19T04:22:45;18.30;70.70
4312;DHT22;2169;49.086;9.284;2023-09-19T04:25:12;18.30;70.70
4312;DHT22;2169;49.086;9.284;2023-09-19T04:27:39;18.30;70.70
4312;DHT22;2169;49.086;9.284;2023-09-19T04:30:07;18.30;70.70
4312;DHT22;2169;49.086;9.284;2023-09-19T04:32:37;18.30;70.70
4312;DHT22;2169;49.086;9.284;2023-09-19T04:35:06;18.30;70.70
4312;DHT22;2169;49.086;9.284;2023-09-19T04:37:36;18.20;70.60
4312;DHT22;2169;49.086;9.284;2023-09-19T04:40:03;18.30;70.70
4312;DHT22;2169;49.086;9.284;2023-09-19T04:42:31;18.30;70.70
4312;DHT22;2169;49.086;9.284;2023-09-19T04:44:58;18.30;70.70
4312;DHT22;2169;49.086;9.284;2023-09-19T04:47:25;18.20;70.60
4312;DHT22;2169;49.086;9.284;2023-09-19T04:49:52;18.30;70.70
4312;DHT22;2169;49.086;9.284;2023-09-19T04:52:18;18.20;70.80
4312;DHT22;2169;49.086;9.284;2023-09-19T04:54:47;18.20;70.70
4312;DHT22;2169;49.086;9.284;2023-09-19T04:57:14;18.20;70.70
4312;DHT22;2169;49.086;9.284;2023-09-19T04:59:41;18.20;70.70
4312;DHT22;2169;49.086;9.284;2023-09-19T05:02:08;18.20;70.70
4312;DHT22;2169;49.086;9.284;2023-09-19T05:04:35;18.20;70.80
4312;DHT22;2169;49.086;9.284;2023-09-19T05:07:01;18.20;70.70
4312;DHT22;2169;49.086;9.284;2023-09-19T05:09:30;18.20;70.70
4312;DHT22;2169;49.086;9.284;2023-09-19T05:12:00;18.20;70.70
4312;DHT22;2169;49.086;9.284;2023-09-19T05:14:27;18.20;70.70
4312;DHT22;2169;49.086;9.284;2023-09-19T05:16:53;18.20;70.80
4312;DHT22;2169;49.086;9.284;2023-09-19T05:19:20;18.10;70.60
4312;DHT22;2169;49.086;9.284;2023-09-19T05:21:47;18.10;70.70
4312;DHT22;2169;49.086;9.284;2023-09-19T05:24:14;18.10;70.70
4312;DHT22;2169;49.086;9.284;2023-09-19T05:26:42;18.10;70.60
4312;DHT22;2169;49.086;9.284;2023-09-19T05:29:11;18.20;70.80
4312;DHT22;2169;49.086;9.284;2023-09-19T05:31:38;18.10;70.60
4312;DHT22;2169;49.086;9.284;2023-09-19T05:34:06;18.10;70.70
4312;DHT22;2169;49.086;9.284;2023-09-19T05:36:33;18.10;70.70
4312;DHT22;2169;49.086;9.284;2023-09-19T05:39:00;18.20;70.80
4312;DHT22;2169;49.086;9.284;2023-09-19T05:41:27;18.10;70.80
4312;DHT22;2169;49.086;9.284;2023-09-19T05:43:53;18.10;70.80
4312;DHT22;2169;49.086;9.284;2023-09-19T05:46:22;18.20;70.90
4312;DHT22;2169;49.086;9.284;2023-09-19T05:48:48;18.20;71.00
4312;DHT22;2169;49.086;9.284;2023-09-19T05:51:15;18.20;71.00
4312;DHT22;2169;49.086;9.284;2023-09-19T05:53:43;18.20;71.00
4312;DHT22;2169;49.086;9.284;2023-09-19T05:56:13;18.20;71.10
4312;DHT22;2169;49.086;9.284;2023-09-19T05:58:40;18.10;71.00
4312;DHT22;2169;49.086;9.284;2023-09-19T06:01:09;18.20;71.10
4312;DHT22;2169;49.086;9.284;2023-09-19T06:03:38;18.20;71.10
4312;DHT22;2169;49.086;9.284;2023-09-19T06:06:04;18.10;71.10
4312;DHT22;2169;49.086;9.284;2023-09-19T06:08:32;18.10;71.10
4312;DHT22;2169;49.086;9.284;2023-09-19T06:10:59;18.10;71.10
4312;DHT22;2169;49.086;9.284;2023-09-19T06:13:28;18.20;71.20
4312;DHT22;2169;49.086;9.284;2023-09-19T06:15:54;18.10;71.20
4312;DHT22;2169;49.086;9.284;2023-09-19T06:18:24;18.20;71.30
4312;DHT22;2169;49.086;9.284;2023-09-19T06:20:53;18.20;71.30
4312;DHT22;2169;49.086;9.284;2023-09-19T06:23:20;18.20;71.30
4312;DHT22;2169;49.086;9.284;2023-09-19T06:25:48;18.20;71.30
4312;DHT22;2169;49.086;9.284;2023-09-19T06:28:15;18.20;71.30
4312;DHT22;2169;49.086;9.284;2023-09-19T06:30:46;18.30;71.30
4312;DHT22;2169;49.086;9.284;2023-09-19T06:33:13;18.30;71.40
4312;DHT22;2169;49.086;9.284;2023-09-19T06:35:40;18.30;71.40
4312;DHT22;2169;49.086;9.284;2023-09-19T06:38:10;18.30;71.40
4312;DHT22;2169;49.086;9.284;2023-09-19T06:40:38;18.30;71.40
4312;DHT22;2169;49.086;9.284;2023-09-19T06:43:10;18.30;71.40
4312;DHT22;2169;49.086;9.284;2023-09-19T06:45:37;18.30;71.30
4312;DHT22;2169;49.086;9.284;2023-09-19T06:48:04;18.30;71.30
4312;DHT22;2169;49.086;9.284;2023-09-19T06:50:32;18.40;71.40
4312;DHT22;2169;49.086;9.284;2023-09-19T06:53:00;18.40;71.30
4312;DHT22;2169;49.086;9.284;2023-09-19T06:55:29;18.40;71.20
4312;DHT22;2169;49.086;9.284;2023-09-19T06:57:57;18.40;71.10
4312;DHT22;2169;49.086;9.284;2023-09-19T07:00:24;18.40;71.00
4312;DHT22;2169;49.086;9.284;2023-09-19T07:02:57;18.40;70.90
4312;DHT22;2169;49.086;9.284;2023-09-19T07:05:26;18.40;70.70
4312;DHT22;2169;49.086;9.284;2023-09-19T07:07:54;18.40;70.60
4312;DHT22;2169;49.086;9.284;2023-09-19T07:10:21;18.50;70.60
4312;DHT22;2169;49.086;9.284;2023-09-19T07:12:55;18.50;70.40
4312;DHT22;2169;49.086;9.284;2023-09-19T07:15:22;18.50;70.30
4312;DHT22;2169;49.086;9.284;2023-09-19T07:17:50;18.50;70.10
4312;DHT22;2169;49.086;9.284;2023-09-19T07:20:17;18.60;70.00
4312;DHT22;2169;49.086;9.284;2023-09-19T07:22:44;18.60;69.70
4312;DHT22;2169;49.086;9.284;2023-09-19T07:25:12;18.60;69.50
4312;DHT22;2169;49.086;9.284;2023-09-19T07:27:39;18.60;69.20
4312;DHT22;2169;49.086;9.284;2023-09-19T07:30:08;18.60;68.70
4312;DHT22;2169;49.086;9.284;2023-09-19T07:32:35;18.60;68.40
4312;DHT22;2169;49.086;9.284;2023-09-19T07:35:03;18.60;68.30
4312;DHT22;2169;49.086;9.284;2023-09-19T07:37:30;18.60;68.10
4312;DHT22;2169;49.086;9.284;2023-09-19T07:39:58;18.60;68.00
4312;DHT22;2169;49.086;9.284;2023-09-19T07:42:25;18.60;67.80
4312;DHT22;2169;49.086;9.284;2023-09-19T07:44:52;18.60;67.50
4312;DHT22;2169;49.086;9.284;2023-09-19T07:47:20;18.70;67.20
4312;DHT22;2169;49.086;9.284;2023-09-19T07:49:47;18.70;67.10
4312;DHT22;2169;49.086;9.284;2023-09-19T07:52:14;18.70;67.00
4312;DHT22;2169;49.086;9.284;2023-09-19T07:54:42;18.70;67.50
4312;DHT22;2169;49.086;9.284;2023-09-19T07:57:09;18.80;66.80
4312;DHT22;2169;49.086;9.284;2023-09-19T07:59:36;18.80;66.50
4312;DHT22;2169;49.086;9.284;2023-09-19T08:02:04;18.80;66.20
4312;DHT22;2169;49.086;9.284;2023-09-19T08:04:32;18.90;66.40
4312;DHT22;2169;49.086;9.284;2023-09-19T08:06:59;19.00;66.10
4312;DHT22;2169;49.086;9.284;2023-09-19T08:09:29;19.00;66.00
4312;DHT22;2169;49.086;9.284;2023-09-19T08:11:58;19.10;65.90
4312;DHT22;2169;49.086;9.284;2023-09-19T08:14:29;19.20;65.80
4312;DHT22;2169;49.086;9.284;2023-09-19T08:16:56;19.20;65.60
4312;DHT22;2169;49.086;9.284;2023-09-19T08:19:23;19.30;65.50
4312;DHT22;2169;49.086;9.284;2023-09-19T08:21:55;19.40;65.30
4312;DHT22;2169;49.086;9.284;2023-09-19T08:24:24;19.40;64.50
4312;DHT22;2169;49.086;9.284;2023-09-19T08:26:53;19.50;64.20
4312;DHT22;2169;49.086;9.284;2023-09-19T08:29:21;19.60;64.00
4312;DHT22;2169;49.086;9.284;2023-09-19T08:31:53;19.70;64.00
4312;DHT22;2169;49.086;9.284;2023-09-19T08:34:20;19.80;64.40
4312;DHT22;2169;49.086;9.284;2023-09-19T08:36:47;19.90;63.70
4312;DHT22;2169;49.086;9.284;2023-09-19T08:39:15;20.00;63.20
4312;DHT22;2169;49.086;9.284;2023-09-19T08:41:44;20.10;62.30
4312;DHT22;2169;49.086;9.284;2023-09-19T08:44:10;20.20;62.00
4312;DHT22;2169;49.086;9.284;2023-09-19T08:46:41;20.20;61.70
4312;DHT22;2169;49.086;9.284;2023-09-19T08:49:13;20.30;61.70
4312;DHT22;2169;49.086;9.284;2023-09-19T08:51:45;20.50;61.20
4312;DHT22;2169;49.086;9.284;2023-09-19T08:54:19;20.50;60.80
4312;DHT22;2169;49.086;9.284;2023-09-19T08:56:50;20.60;60.90
4312;DHT22;2169;49.086;9.284;2023-09-19T08:59:21;20.70;60.80
4312;DHT22;2169;49.086;9.284;2023-09-19T09:01:51;20.80;60.10
4312;DHT22;2169;49.086;9.284;2023-09-19T09:04:19;20.90;59.60
4312;DHT22;2169;49.086;9.284;2023-09-19T09:06:47;20.90;59.10
4312;DHT22;2169;49.086;9.284;2023-09-19T09:09:17;20.90;58.70
4312;DHT22;2169;49.086;9.284;2023-09-19T09:11:45;20.90;58.50
4312;DHT22;2169;49.086;9.284;2023-09-19T09:14:15;20.90;58.50
4312;DHT22;2169;49.086;9.284;2023-09-19T09:16:43;20.90;58.30
4312;DHT22;2169;49.086;9.284;2023-09-19T09:19:10;20.90;58.10
4312;DHT22;2169;49.086;9.284;2023-09-19T09:21:39;20.90;58.20
4312;DHT22;2169;49.086;9.284;2023-09-19T09:24:36;20.90;58.20
4312;DHT22;2169;49.086;9.284;2023-09-19T09:27:06;21.00;58.10
4312;DHT22;2169;49.086;9.284;2023-09-19T09:29:42;21.00;58.10
4312;DHT22;2169;49.086;9.284;2023-09-19T09:32:21;21.00;58.10
4312;DHT22;2169;49.086;9.284;2023-09-19T09:34:50;21.10;58.00
4312;DHT22;2169;49.086;9.284;2023-09-19T09:37:17;21.10;57.80
4312;DHT22;2169;49.086;9.284;2023-09-19T09:39:49;21.10;57.70
4312;DHT22;2169;49.086;9.284;2023-09-19T09:42:31;21.20;57.50
4312;DHT22;2169;49.086;9.284;2023-09-19T09:45:13;21.20;57.50
4312;DHT22;2169;49.086;9.284;2023-09-19T09:47:48;21.20;57.20
4312;DHT22;2169;49.086;9.284;2023-09-19T09:50:25;21.30;57.10
4312;DHT22;2169;49.086;9.284;2023-09-19T09:52:55;21.30;57.00
4312;DHT22;2169;49.086;9.284;2023-09-19T09:56:02;21.30;56.60
4312;DHT22;2169;49.086;9.284;2023-09-19T09:58:33;21.40;56.10
4312;DHT22;2169;49.086;9.284;2023-09-19T10:01:01;21.30;56.10
4312;DHT22;2169;49.086;9.284;2023-09-19T10:03:35;21.40;56.00
4312;DHT22;2169;49.086;9.284;2023-09-19T10:06:07;21.30;55.70
4312;DHT22;2169;49.086;9.284;2023-09-19T10:08:58;21.40;55.50
4312;DHT22;2169;49.086;9.284;2023-09-19T10:11:31;21.40;55.40
4312;DHT22;2169;49.086;9.284;2023-09-19T10:14:00;21.40;55.30
4312;DHT22;2169;49.086;9.284;2023-09-19T10:16:32;21.40;55.20
4312;DHT22;2169;49.086;9.284;2023-09-19T10:19:02;21.40;54.90
4312;DHT22;2169;49.086;9.284;2023-09-19T10:21:32;21.40;55.00
4312;DHT22;2169;49.086;9.284;2023-09-19T10:24:02;21.40;54.90
4312;DHT22;2169;49.086;9.284;2023-09-19T10:26:34;21.50;54.90
4312;DHT22;2169;49.086;9.284;2023-09-19T10:29:06;21.50;54.90
4312;DHT22;2169;49.086;9.284;2023-09-19T10:31:36;21.50;54.80
4312;DHT22;2169;49.086;9.284;2023-09-19T10:34:08;21.50;54.50
4312;DHT22;2169;49.086;9.284;2023-09-19T10:36:36;21.50;54.40
4312;DHT22;2169;49.086;9.284;2023-09-19T10:39:06;21.50;54.50
4312;DHT22;2169;49.086;9.284;2023-09-19T10:41:34;21.50;54.40
4312;DHT22;2169;49.086;9.284;2023-09-19T10:44:04;21.50;54.30
4312;DHT22;2169;49.086;9.284;2023-09-19T10:46:32;21.50;54.30
4312;DHT22;2169;49.086;9.284;2023-09-19T10:48:59;21.50;54.30
4312;DHT22;2169;49.086;9.284;2023-09-19T10:51:29;21.60;54.30
4312;DHT22;2169;49.086;9.284;2023-09-19T10:54:02;21.60;54.50
4312;DHT22;2169;49.086;9.284;2023-09-19T10:56:34;21.60;54.60
4312;DHT22;2169;49.086;9.284;2023-09-19T10:59:08;21.60;54.30
4312;DHT22;2169;49.086;9.284;2023-09-19T11:01:46;21.60;54.30
4312;DHT22;2169;49.086;9.284;2023-09-19T11:04:24;21.70;54.50
4312;DHT22;2169;49.086;9.284;2023-09-19T11:07:03;21.80;54.50
4312;DHT22;2169;49.086;9.284;2023-09-19T11:09:47;21.80;54.90
4312;DHT22;2169;49.086;9.284;2023-09-19T11:21:41;22.10;53.40
4312;DHT22;2169;49.086;9.284;2023-09-19T11:24:32;22.10;53.30
4312;DHT22;2169;49.086;9.284;2023-09-19T11:27:12;22.20;53.20
4312;DHT22;2169;49.086;9.284;2023-09-19T11:29:40;22.30;52.70
4312;DHT22;2169;49.086;9.284;2023-09-19T11:32:07;22.30;52.50
4312;DHT22;2169;49.086;9.284;2023-09-19T11:34:45;22.40;52.30
4312;DHT22;2169;49.086;9.284;2023-09-19T11:40:37;22.40;52.10
4312;DHT22;2169;49.086;9.284;2023-09-19T11:43:29;22.50;52.20
4312;DHT22;2169;49.086;9.284;2023-09-19T11:46:05;22.50;51.90
4312;DHT22;2169;49.086;9.284;2023-09-19T11:48:32;22.50;51.70
4312;DHT22;2169;49.086;9.284;2023-09-19T11:51:00;22.50;51.60
4312;DHT22;2169;49.086;9.284;2023-09-19T11:53:33;22.50;51.60
4312;DHT22;2169;49.086;9.284;2023-09-19T11:56:06;22.60;51.60
4312;DHT22;2169;49.086;9.284;2023-09-19T11:58:37;22.70;51.60
4312;DHT22;2169;49.086;9.284;2023-09-19T12:01:05;22.70;51.60
4312;DHT22;2169;49.086;9.284;2023-09-19T12:03:40;22.70;51.40
4312;DHT22;2169;49.086;9.284;2023-09-19T12:06:11;22.70;51.20
4312;DHT22;2169;49.086;9.284;2023-09-19T12:08:40;22.80;51.20
4312;DHT22;2169;49.086;9.284;2023-09-19T12:11:13;22.70;51.00
4312;DHT22;2169;49.086;9.284;2023-09-19T12:13:42;22.80;50.90
4312;DHT22;2169;49.086;9.284;2023-09-19T12:16:14;22.80;50.50
4312;DHT22;2169;49.086;9.284;2023-09-19T12:18:42;22.80;50.00
4312;DHT22;2169;49.086;9.284;2023-09-19T12:21:24;22.80;49.80
4312;DHT22;2169;49.086;9.284;2023-09-19T12:24:13;22.90;49.90
4312;DHT22;2169;49.086;9.284;2023-09-19T12:26:44;22.90;49.70
4312;DHT22;2169;49.086;9.284;2023-09-19T12:29:14;22.90;49.70
4312;DHT22;2169;49.086;9.284;2023-09-19T12:31:52;22.90;49.50
4312;DHT22;2169;49.086;9.284;2023-09-19T12:34:22;23.00;49.40
4312;DHT22;2169;49.086;9.284;2023-09-19T12:37:04;22.90;49.20
4312;DHT22;2169;49.086;9.284;2023-09-19T12:39:36;23.00;48.90
4312;DHT22;2169;49.086;9.284;2023-09-19T12:42:05;23.00;48.90
4312;DHT22;2169;49.086;9.284;2023-09-19T12:44:35;23.10;48.90
4312;DHT22;2169;49.086;9.284;2023-09-19T12:47:09;23.10;48.80
4312;DHT22;2169;49.086;9.284;2023-09-19T12:49:36;23.20;48.80
4312;DHT22;2169;49.086;9.284;2023-09-19T12:52:03;23.20;48.30
4312;DHT22;2169;49.086;9.284;2023-09-19T12:54:38;23.20;47.90
4312;DHT22;2169;49.086;9.284;2023-09-19T12:57:06;23.30;48.10
4312;DHT22;2169;49.086;9.284;2023-09-19T12:59:33;23.30;47.60
4312;DHT22;2169;49.086;9.284;2023-09-19T13:02:04;23.30;47.40
4312;DHT22;2169;49.086;9.284;2023-09-19T13:04:32;23.40;47.20
4312;DHT22;2169;49.086;9.284;2023-09-19T13:07:00;23.40;47.30
4312;DHT22;2169;49.086;9.284;2023-09-19T13:09:28;23.50;47.10
4312;DHT22;2169;49.086;9.284;2023-09-19T13:12:00;23.50;47.00
4312;DHT22;2169;49.086;9.284;2023-09-19T13:14:29;23.50;46.90
4312;DHT22;2169;49.086;9.284;2023-09-19T13:17:00;23.50;46.60
4312;DHT22;2169;49.086;9.284;2023-09-19T13:19:40;23.60;46.50
4312;DHT22;2169;49.086;9.284;2023-09-19T13:25:08;23.60;46.70
4312;DHT22;2169;49.086;9.284;2023-09-19T13:27:40;23.60;46.90
4312;DHT22;2169;49.086;9.284;2023-09-19T13:30:09;23.70;47.00
4312;DHT22;2169;49.086;9.284;2023-09-19T13:32:36;23.70;46.80
4312;DHT22;2169;49.086;9.284;2023-09-19T13:35:05;23.70;46.50
4312;DHT22;2169;49.086;9.284;2023-09-19T13:37:34;23.80;46.40
4312;DHT22;2169;49.086;9.284;2023-09-19T13:40:01;23.80;46.20
4312;DHT22;2169;49.086;9.284;2023-09-19T13:42:30;23.80;46.20
4312;DHT22;2169;49.086;9.284;2023-09-19T13:44:57;23.90;46.10
4312;DHT22;2169;49.086;9.284;2023-09-19T13:47:25;23.90;46.00
4312;DHT22;2169;49.086;9.284;2023-09-19T13:49:52;23.90;45.90
4312;DHT22;2169;49.086;9.284;2023-09-19T13:52:19;24.00;46.00
4312;DHT22;2169;49.086;9.284;2023-09-19T13:54:47;24.00;45.70
4312;DHT22;2169;49.086;9.284;2023-09-19T13:57:14;24.00;45.40
4312;DHT22;2169;49.086;9.284;2023-09-19T13:59:40;24.00;45.20
4312;DHT22;2169;49.086;9.284;2023-09-19T14:02:07;24.00;44.90
4312;DHT22;2169;49.086;9.284;2023-09-19T14:04:35;24.00;45.00
4312;DHT22;2169;49.086;9.284;2023-09-19T14:07:02;24.00;44.80
4312;DHT22;2169;49.086;9.284;2023-09-19T14:09:29;24.00;44.90
4312;DHT22;2169;49.086;9.284;2023-09-19T14:11:56;24.00;45.10
4312;DHT22;2169;49.086;9.284;2023-09-19T14:14:23;24.00;45.30
4312;DHT22;2169;49.086;9.284;2023-09-19T14:16:50;24.00;45.00
4312;DHT22;2169;49.086;9.284;2023-09-19T14:19:17;24.00;45.10
4312;DHT22;2169;49.086;9.284;2023-09-19T14:21:45;24.10;45.00
4312;DHT22;2169;49.086;9.284;2023-09-19T14:24:16;24.10;45.00
4312;DHT22;2169;49.086;9.284;2023-09-19T14:26:43;24.10;45.00
4312;DHT22;2169;49.086;9.284;2023-09-19T14:29:10;24.10;45.00
4312;DHT22;2169;49.086;9.284;2023-09-19T14:31:37;24.10;45.00
4312;DHT22;2169;49.086;9.284;2023-09-19T14:34:06;24.20;44.80
4312;DHT22;2169;49.086;9.284;2023-09-19T14:36:35;24.20;44.50
4312;DHT22;2169;49.086;9.284;2023-09-19T14:39:03;24.10;44.20
4312;DHT22;2169;49.086;9.284;2023-09-19T14:41:30;24.10;44.30
4312;DHT22;2169;49.086;9.284;2023-09-19T14:43:57;24.20;44.50
4312;DHT22;2169;49.086;9.284;2023-09-19T14:46:24;24.20;44.70
4312;DHT22;2169;49.086;9.284;2023-09-19T14:48:51;24.20;44.60
4312;DHT22;2169;49.086;9.284;2023-09-19T14:51:18;24.20;44.60
4312;DHT22;2169;49.086;9.284;2023-09-19T14:53:45;24.20;44.40
4312;DHT22;2169;49.086;9.284;2023-09-19T14:56:13;24.20;44.30
4312;DHT22;2169;49.086;9.284;2023-09-19T14:58:45;24.20;44.40
4312;DHT22;2169;49.086;9.284;2023-09-19T15:01:13;24.20;44.50
4312;DHT22;2169;49.086;9.284;2023-09-19T15:03:41;24.20;44.60
4312;DHT22;2169;49.086;9.284;2023-09-19T15:06:09;24.20;44.50
4312;DHT22;2169;49.086;9.284;2023-09-19T15:08:40;24.20;44.40
4312;DHT22;2169;49.086;9.284;2023-09-19T15:11:11;24.20;44.60
4312;DHT22;2169;49.086;9.284;2023-09-19T15:13:40;24.20;44.40
4312;DHT22;2169;49.086;9.284;2023-09-19T15:16:08;24.20;44.20
4312;DHT22;2169;49.086;9.284;2023-09-19T15:18:35;24.10;44.20
4312;DHT22;2169;49.086;9.284;2023-09-19T15:21:03;24.10;44.30
4312;DHT22;2169;49.086;9.284;2023-09-19T15:23:30;24.10;44.30
4312;DHT22;2169;49.086;9.284;2023-09-19T15:26:00;24.10;44.40
4312;DHT22;2169;49.086;9.284;2023-09-19T15:28:27;24.20;44.60
4312;DHT22;2169;49.086;9.284;2023-09-19T15:30:59;24.20;44.80
4312;DHT22;2169;49.086;9.284;2023-09-19T15:33:26;24.20;45.60
4312;DHT22;2169;49.086;9.284;2023-09-19T15:36:01;24.20;44.80
4312;DHT22;2169;49.086;9.284;2023-09-19T15:38:29;24.20;44.70
4312;DHT22;2169;49.086;9.284;2023-09-19T15:40:57;24.20;44.80
4312;DHT22;2169;49.086;9.284;2023-09-19T15:43:24;24.20;44.40
4312;DHT22;2169;49.086;9.284;2023-09-19T15:45:50;24.20;44.20
4312;DHT22;2169;49.086;9.284;2023-09-19T15:48:19;24.10;43.80
4312;DHT22;2169;49.086;9.284;2023-09-19T15:50:47;24.10;43.80
4312;DHT22;2169;49.086;9.284;2023-09-19T15:53:13;24.10;43.90
4312;DHT22;2169;49.086;9.284;2023-09-19T15:55:42;24.10;43.70
4312;DHT22;2169;49.086;9.284;2023-09-19T15:58:09;24.00;43.40
4312;DHT22;2169;49.086;9.284;2023-09-19T16:00:39;24.00;43.40
4312;DHT22;2169;49.086;9.284;2023-09-19T16:03:06;24.00;43.50
4312;DHT22;2169;49.086;9.284;2023-09-19T16:05:36;24.00;43.70
4312;DHT22;2169;49.086;9.284;2023-09-19T16:08:05;24.00;43.80
4312;DHT22;2169;49.086;9.284;2023-09-19T16:10:34;24.00;44.00
4312;DHT22;2169;49.086;9.284;2023-09-19T16:13:02;24.00;44.00
4312;DHT22;2169;49.086;9.284;2023-09-19T16:15:30;23.90;44.00
4312;DHT22;2169;49.086;9.284;2023-09-19T16:17:56;23.90;44.10
4312;DHT22;2169;49.086;9.284;2023-09-19T16:20:23;23.90;44.20
4312;DHT22;2169;49.086;9.284;2023-09-19T16:22:51;23.90;44.30
4312;DHT22;2169;49.086;9.284;2023-09-19T16:25:18;23.90;44.30
4312;DHT22;2169;49.086;9.284;2023-09-19T16:27:45;23.90;44.30
4312;DHT22;2169;49.086;9.284;2023-09-19T16:30:12;23.90;44.30
4312;DHT22;2169;49.086;9.284;2023-09-19T16:32:39;23.80;44.30
4312;DHT22;2169;49.086;9.284;2023-09-19T16:35:07;23.80;44.40